sensor_id;sensor_type;location;lat;lon;timestamp;pressure;altitude;pressure_sealevel;temperature;humidity
53506;BME280;39388;50.936;6.848;2022-10-23T00:00:41;100911.84;;;13.85;94.20
53506;BME280;39388;50.936;6.848;2022-10-23T00:03:11;100890.50;;;13.70;94.38
53506;BME280;39388;50.936;6.848;2022-10-23T00:05:41;100906.75;;;13.82;94.38
53506;BME280;39388;50.936;6.848;2022-10-23T00:08:12;100890.44;;;13.75;94.17
53506;BME280;39388;50.936;6.848;2022-10-23T00:10:42;100892.19;;;13.71;94.24
53506;BME280;39388;50.936;6.848;2022-10-23T00:13:13;100897.34;;;13.76;94.47
53506;BME280;39388;50.936;6.848;2022-10-23T00:15:43;100892.19;;;13.73;94.59
53506;BME280;39388;50.936;6.848;2022-10-23T00:18:13;100900.84;;;13.72;94.69
53506;BME280;39388;50.936;6.848;2022-10-23T00:20:44;100906.03;;;13.72;94.62
53506;BME280;39388;50.936;6.848;2022-10-23T00:23:15;100893.97;;;13.69;94.88
53506;BME280;39388;50.936;6.848;2022-10-23T00:25:46;100893.13;;;13.66;94.74
53506;BME280;39388;50.936;6.848;2022-10-23T00:28:16;100894.94;;;13.62;94.31
53506;BME280;39388;50.936;6.848;2022-10-23T00:30:47;100910.44;;;13.65;94.89
53506;BME280;39388;50.936;6.848;2022-10-23T00:33:17;100912.22;;;13.60;94.89
53506;BME280;39388;50.936;6.848;2022-10-23T00:35:48;100907.91;;;13.59;94.82
53506;BME280;39388;50.936;6.848;2022-10-23T00:38:18;100902.81;;;13.56;94.85
53506;BME280;39388;50.936;6.848;2022-10-23T00:40:48;100893.34;;;13.52;94.73
53506;BME280;39388;50.936;6.848;2022-10-23T00:43:22;100895.03;;;13.56;94.72
53506;BME280;39388;50.936;6.848;2022-10-23T00:45:53;100899.38;;;13.54;94.79
53506;BME280;39388;50.936;6.848;2022-10-23T00:48:25;100891.59;;;13.52;94.70
53506;BME280;39388;50.936;6.848;2022-10-23T00:50:56;100886.47;;;13.49;94.97
53506;BME280;39388;50.936;6.848;2022-10-23T00:53:27;100878.84;;;13.40;94.94
53506;BME280;39388;50.936;6.848;2022-10-23T00:55:57;100885.66;;;13.45;94.89
53506;BME280;39388;50.936;6.848;2022-10-23T00:58:29;100881.44;;;13.40;94.93
53506;BME280;39388;50.936;6.848;2022-10-23T01:00:59;100885.69;;;13.42;95.00
53506;BME280;39388;50.936;6.848;2022-10-23T01:03:29;100884.81;;;13.45;95.25
53506;BME280;39388;50.936;6.848;2022-10-23T01:06:36;100885.69;;;13.44;95.12
53506;BME280;39388;50.936;6.848;2022-10-23T01:09:35;100883.97;;;13.43;95.12
53506;BME280;39388;50.936;6.848;2022-10-23T01:12:49;100880.56;;;13.41;94.94
53506;BME280;39388;50.936;6.848;2022-10-23T01:15:30;100880.50;;;13.42;94.69
53506;BME280;39388;50.936;6.848;2022-10-23T01:18:20;100884.00;;;13.41;94.79
53506;BME280;39388;50.936;6.848;2022-10-23T01:21:12;100873.69;;;13.35;94.97
53506;BME280;39388;50.936;6.848;2022-10-23T01:29:37;100856.50;;;13.29;94.87
53506;BME280;39388;50.936;6.848;2022-10-23T01:32:18;100876.22;;;13.43;95.09
53506;BME280;39388;50.936;6.848;2022-10-23T01:35:04;100843.59;;;13.26;95.33
53506;BME280;39388;50.936;6.848;2022-10-23T01:37:45;100860.72;;;13.37;95.40
53506;BME280;39388;50.936;6.848;2022-10-23T01:40:22;100864.13;;;13.42;95.49
53506;BME280;39388;50.936;6.848;2022-10-23T01:42:58;100862.38;;;13.44;95.59
53506;BME280;39388;50.936;6.848;2022-10-23T01:45:42;100852.03;;;13.42;95.76
53506;BME280;39388;50.936;6.848;2022-10-23T01:48:17;100858.00;;;13.47;95.84
53506;BME280;39388;50.936;6.848;2022-10-23T01:50:49;100858.88;;;13.46;96.03
53506;BME280;39388;50.936;6.848;2022-10-23T01:53:21;100855.38;;;13.49;96.07
53506;BME280;39388;50.936;6.848;2022-10-23T01:55:52;100845.03;;;13.49;95.71
53506;BME280;39388;50.936;6.848;2022-10-23T01:58:25;100839.91;;;13.44;96.05
53506;BME280;39388;50.936;6.848;2022-10-23T02:01:00;100835.56;;;13.46;95.96
53506;BME280;39388;50.936;6.848;2022-10-23T02:03:34;100833.81;;;13.49;96.09
53506;BME280;39388;50.936;6.848;2022-10-23T02:06:06;100833.75;;;13.53;96.41
53506;BME280;39388;50.936;6.848;2022-10-23T02:08:37;100802.84;;;13.38;96.48
53506;BME280;39388;50.936;6.848;2022-10-23T02:11:10;100814.78;;;13.51;96.43
53506;BME280;39388;50.936;6.848;2022-10-23T02:16:39;100817.31;;;13.54;96.65
53506;BME280;39388;50.936;6.848;2022-10-23T02:19:26;100815.59;;;13.55;96.53
53506;BME280;39388;50.936;6.848;2022-10-23T02:22:09;100818.16;;;13.56;96.56
53506;BME280;39388;50.936;6.848;2022-10-23T02:27:42;100804.38;;;13.56;96.56
53506;BME280;39388;50.936;6.848;2022-10-23T02:30:16;100807.75;;;13.59;96.37
53506;BME280;39388;50.936;6.848;2022-10-23T02:32:49;100801.72;;;13.57;96.37
53506;BME280;39388;50.936;6.848;2022-10-23T02:35:22;100805.13;;;13.61;96.29
53506;BME280;39388;50.936;6.848;2022-10-23T02:37:58;100792.22;;;13.58;96.40
53506;BME280;39388;50.936;6.848;2022-10-23T02:40:39;100799.06;;;13.62;96.79
53506;BME280;39388;50.936;6.848;2022-10-23T02:43:21;100790.38;;;13.65;96.76
53506;BME280;39388;50.936;6.848;2022-10-23T02:46:00;100780.88;;;13.65;96.82
53506;BME280;39388;50.936;6.848;2022-10-23T02:48:45;100774.84;;;13.65;96.78
53506;BME280;39388;50.936;6.848;2022-10-23T02:51:21;100774.03;;;13.62;96.77
53506;BME280;39388;50.936;6.848;2022-10-23T02:54:05;100773.06;;;13.68;96.86
53506;BME280;39388;50.936;6.848;2022-10-23T02:59:19;100762.72;;;13.67;96.62
53506;BME280;39388;50.936;6.848;2022-10-23T03:01:54;100780.75;;;13.71;96.66
53506;BME280;39388;50.936;6.848;2022-10-23T03:04:27;100767.88;;;13.68;96.39
53506;BME280;39388;50.936;6.848;2022-10-23T03:07:00;100757.47;;;13.70;96.23
53506;BME280;39388;50.936;6.848;2022-10-23T03:09:31;100763.53;;;13.69;96.10
53506;BME280;39388;50.936;6.848;2022-10-23T03:12:01;100754.84;;;13.71;96.51
53506;BME280;39388;50.936;6.848;2022-10-23T03:14:31;100736.72;;;13.71;96.71
53506;BME280;39388;50.936;6.848;2022-10-23T03:17:03;100726.44;;;13.68;96.62
53506;BME280;39388;50.936;6.848;2022-10-23T03:19:33;100730.78;;;13.66;96.77
53506;BME280;39388;50.936;6.848;2022-10-23T03:22:04;100735.91;;;13.68;96.75
53506;BME280;39388;50.936;6.848;2022-10-23T03:24:34;100727.31;;;13.66;96.89
53506;BME280;39388;50.936;6.848;2022-10-23T03:27:05;100730.78;;;13.66;96.42
53506;BME280;39388;50.936;6.848;2022-10-23T03:29:35;100728.13;;;13.69;97.13
53506;BME280;39388;50.936;6.848;2022-10-23T03:32:05;100739.38;;;13.67;96.83
53506;BME280;39388;50.936;6.848;2022-10-23T03:34:36;100740.22;;;13.70;96.82
53506;BME280;39388;50.936;6.848;2022-10-23T03:37:07;100732.44;;;13.69;96.92
53506;BME280;39388;50.936;6.848;2022-10-23T03:39:37;100739.34;;;13.70;96.91
53506;BME280;39388;50.936;6.848;2022-10-23T03:42:07;100739.38;;;13.67;96.78
53506;BME280;39388;50.936;6.848;2022-10-23T03:44:38;100741.97;;;13.68;96.92
53506;BME280;39388;50.936;6.848;2022-10-23T03:47:08;100741.97;;;13.68;96.89
53506;BME280;39388;50.936;6.848;2022-10-23T03:49:40;100743.69;;;13.69;97.08
53506;BME280;39388;50.936;6.848;2022-10-23T03:52:11;100744.63;;;13.65;96.97
53506;BME280;39388;50.936;6.848;2022-10-23T03:54:41;100744.56;;;13.68;96.87
53506;BME280;39388;50.936;6.848;2022-10-23T03:57:12;100732.53;;;13.64;97.15
53506;BME280;39388;50.936;6.848;2022-10-23T03:59:42;100736.75;;;13.70;97.07
53506;BME280;39388;50.936;6.848;2022-10-23T04:02:12;100729.03;;;13.67;96.98
53506;BME280;39388;50.936;6.848;2022-10-23T04:04:43;100728.13;;;13.69;97.01
53506;BME280;39388;50.936;6.848;2022-10-23T04:07:13;100729.88;;;13.69;97.08
53506;BME280;39388;50.936;6.848;2022-10-23T04:09:44;100724.72;;;13.66;96.79
53506;BME280;39388;50.936;6.848;2022-10-23T04:12:14;100722.97;;;13.68;97.04
53506;BME280;39388;50.936;6.848;2022-10-23T04:14:45;100717.81;;;13.66;97.10
53506;BME280;39388;50.936;6.848;2022-10-23T04:17:15;100704.97;;;13.60;97.11
53506;BME280;39388;50.936;6.848;2022-10-23T04:19:45;100718.75;;;13.62;97.36
53506;BME280;39388;50.936;6.848;2022-10-23T04:22:16;100711.91;;;13.59;97.11
53506;BME280;39388;50.936;6.848;2022-10-23T04:24:46;100725.66;;;13.63;97.16
53506;BME280;39388;50.936;6.848;2022-10-23T04:27:17;100735.13;;;13.64;97.33
53506;BME280;39388;50.936;6.848;2022-10-23T04:29:47;100731.69;;;13.62;97.32
53506;BME280;39388;50.936;6.848;2022-10-23T04:32:18;100732.56;;;13.62;97.52
53506;BME280;39388;50.936;6.848;2022-10-23T04:34:48;100716.22;;;13.59;97.45
53506;BME280;39388;50.936;6.848;2022-10-23T04:37:19;100708.44;;;13.59;97.56
53506;BME280;39388;50.936;6.848;2022-10-23T04:39:49;100697.28;;;13.55;97.63
53506;BME280;39388;50.936;6.848;2022-10-23T04:42:19;100686.88;;;13.57;97.54
53506;BME280;39388;50.936;6.848;2022-10-23T04:44:50;100685.19;;;13.54;97.46
53506;BME280;39388;50.936;6.848;2022-10-23T04:47:20;100691.22;;;13.56;97.71
53506;BME280;39388;50.936;6.848;2022-10-23T04:49:50;100697.28;;;13.55;97.76
53506;BME280;39388;50.936;6.848;2022-10-23T04:52:21;100690.38;;;13.54;97.88
53506;BME280;39388;50.936;6.848;2022-10-23T04:54:52;100660.41;;;13.41;97.95
53506;BME280;39388;50.936;6.848;2022-10-23T04:57:22;100666.47;;;13.40;98.10
53506;BME280;39388;50.936;6.848;2022-10-23T04:59:52;100675.75;;;13.52;97.86
53506;BME280;39388;50.936;6.848;2022-10-23T05:02:23;100686.13;;;13.52;97.92
53506;BME280;39388;50.936;6.848;2022-10-23T05:04:53;100681.78;;;13.52;97.51
53506;BME280;39388;50.936;6.848;2022-10-23T05:07:23;100674.88;;;13.51;97.70
53506;BME280;39388;50.936;6.848;2022-10-23T05:09:54;100678.34;;;13.50;97.86
53506;BME280;39388;50.936;6.848;2022-10-23T05:12:24;100691.31;;;13.52;97.99
53506;BME280;39388;50.936;6.848;2022-10-23T05:14:57;100689.56;;;13.52;97.82
53506;BME280;39388;50.936;6.848;2022-10-23T05:17:34;100673.16;;;13.52;97.91
53506;BME280;39388;50.936;6.848;2022-10-23T05:20:09;100649.06;;;13.46;97.87
53506;BME280;39388;50.936;6.848;2022-10-23T05:22:43;100658.50;;;13.49;97.87
53506;BME280;39388;50.936;6.848;2022-10-23T05:25:15;100665.50;;;13.47;97.82
53506;BME280;39388;50.936;6.848;2022-10-23T05:27:45;100663.78;;;13.46;98.08
53506;BME280;39388;50.936;6.848;2022-10-23T05:30:16;100650.84;;;13.44;98.18
53506;BME280;39388;50.936;6.848;2022-10-23T05:32:46;100651.72;;;13.45;97.98
53506;BME280;39388;50.936;6.848;2022-10-23T05:35:20;100645.72;;;13.41;98.06
53506;BME280;39388;50.936;6.848;2022-10-23T05:37:52;100654.25;;;13.46;98.07
53506;BME280;39388;50.936;6.848;2022-10-23T05:40:23;100649.13;;;13.45;98.11
53506;BME280;39388;50.936;6.848;2022-10-23T05:42:54;100651.66;;;13.46;97.92
53506;BME280;39388;50.936;6.848;2022-10-23T05:45:25;100643.06;;;13.46;97.78
53506;BME280;39388;50.936;6.848;2022-10-23T05:47:55;100631.81;;;13.45;97.70
53506;BME280;39388;50.936;6.848;2022-10-23T05:50:26;100634.41;;;13.45;97.52
53506;BME280;39388;50.936;6.848;2022-10-23T05:52:56;100627.59;;;13.41;97.70
53506;BME280;39388;50.936;6.848;2022-10-23T05:55:26;100616.38;;;13.41;97.69
53506;BME280;39388;50.936;6.848;2022-10-23T05:57:57;100616.38;;;13.41;97.73
53506;BME280;39388;50.936;6.848;2022-10-23T06:00:27;100594.94;;;13.31;97.84
53506;BME280;39388;50.936;6.848;2022-10-23T06:02:59;100616.28;;;13.47;97.72
53506;BME280;39388;50.936;6.848;2022-10-23T06:05:29;100601.72;;;13.40;97.51
53506;BME280;39388;50.936;6.848;2022-10-23T06:08:00;100597.41;;;13.40;97.50
53506;BME280;39388;50.936;6.848;2022-10-23T06:10:30;100605.91;;;13.47;97.61
53506;BME280;39388;50.936;6.848;2022-10-23T06:13:01;100601.63;;;13.46;97.60
53506;BME280;39388;50.936;6.848;2022-10-23T06:15:31;100610.22;;;13.48;97.35
53506;BME280;39388;50.936;6.848;2022-10-23T06:18:03;100605.97;;;13.42;97.54
53506;BME280;39388;50.936;6.848;2022-10-23T06:20:35;100606.72;;;13.49;97.38
53506;BME280;39388;50.936;6.848;2022-10-23T06:23:06;100606.72;;;13.49;97.13
53506;BME280;39388;50.936;6.848;2022-10-23T06:25:37;100597.22;;;13.50;97.38
53506;BME280;39388;50.936;6.848;2022-10-23T06:28:07;100609.19;;;13.55;97.39
53506;BME280;39388;50.936;6.848;2022-10-23T06:30:38;100601.38;;;13.57;97.17
53506;BME280;39388;50.936;6.848;2022-10-23T06:33:08;100597.91;;;13.58;97.29
53506;BME280;39388;50.936;6.848;2022-10-23T06:35:38;100597.81;;;13.64;97.04
53506;BME280;39388;50.936;6.848;2022-10-23T06:38:09;100600.31;;;13.69;96.82
53506;BME280;39388;50.936;6.848;2022-10-23T06:40:39;100585.75;;;13.63;96.68
53506;BME280;39388;50.936;6.848;2022-10-23T06:43:10;100595.84;;;13.75;96.56
53506;BME280;39388;50.936;6.848;2022-10-23T06:45:40;100591.50;;;13.77;96.34
53506;BME280;39388;50.936;6.848;2022-10-23T06:48:11;100599.13;;;13.85;96.25
53506;BME280;39388;50.936;6.848;2022-10-23T06:50:41;100593.84;;;13.90;95.94
53506;BME280;39388;50.936;6.848;2022-10-23T06:53:12;100584.41;;;13.86;95.88
53506;BME280;39388;50.936;6.848;2022-10-23T06:55:42;100586.94;;;13.90;95.83
53506;BME280;39388;50.936;6.848;2022-10-23T06:58:13;100591.13;;;13.96;95.71
53506;BME280;39388;50.936;6.848;2022-10-23T07:00:43;100587.72;;;13.94;95.57
53506;BME280;39388;50.936;6.848;2022-10-23T07:03:13;100590.16;;;14.02;95.41
53506;BME280;39388;50.936;6.848;2022-10-23T07:05:44;100578.06;;;13.99;95.16
53506;BME280;39388;50.936;6.848;2022-10-23T07:08:16;100585.69;;;14.07;95.16
53506;BME280;39388;50.936;6.848;2022-10-23T07:10:46;100579.63;;;14.08;95.02
53506;BME280;39388;50.936;6.848;2022-10-23T07:13:18;100579.56;;;14.13;94.83
53506;BME280;39388;50.936;6.848;2022-10-23T07:15:48;100583.03;;;14.12;94.77
53506;BME280;39388;50.936;6.848;2022-10-23T07:18:18;100577.78;;;14.13;94.65
53506;BME280;39388;50.936;6.848;2022-10-23T07:20:56;100588.88;;;14.20;94.41
53506;BME280;39388;50.936;6.848;2022-10-23T07:23:27;100581.06;;;14.21;94.25
53506;BME280;39388;50.936;6.848;2022-10-23T07:26:12;100579.28;;;14.25;94.19
53506;BME280;39388;50.936;6.848;2022-10-23T07:28:47;100580.88;;;14.31;93.86
53506;BME280;39388;50.936;6.848;2022-10-23T07:31:17;100579.94;;;14.33;93.55
53506;BME280;39388;50.936;6.848;2022-10-23T07:33:48;100584.91;;;14.43;93.49
53506;BME280;39388;50.936;6.848;2022-10-23T07:36:19;100582.25;;;14.46;93.21
53506;BME280;39388;50.936;6.848;2022-10-23T07:38:50;100585.59;;;14.51;93.16
53506;BME280;39388;50.936;6.848;2022-10-23T07:41:21;100578.66;;;14.53;92.81
53506;BME280;39388;50.936;6.848;2022-10-23T07:43:51;100572.44;;;14.59;92.70
53506;BME280;39388;50.936;6.848;2022-10-23T07:46:21;100565.56;;;14.58;92.47
53506;BME280;39388;50.936;6.848;2022-10-23T07:48:52;100560.31;;;14.61;92.12
53506;BME280;39388;50.936;6.848;2022-10-23T07:51:23;100551.69;;;14.59;92.13
53506;BME280;39388;50.936;6.848;2022-10-23T07:53:53;100554.22;;;14.62;92.03
53506;BME280;39388;50.936;6.848;2022-10-23T07:56:26;100567.91;;;14.67;91.89
53506;BME280;39388;50.936;6.848;2022-10-23T07:58:58;100568.78;;;14.67;91.88
53506;BME280;39388;50.936;6.848;2022-10-23T08:01:33;100571.22;;;14.74;91.52
53506;BME280;39388;50.936;6.848;2022-10-23T08:04:04;100550.44;;;14.74;91.62
53506;BME280;39388;50.936;6.848;2022-10-23T08:06:35;100550.16;;;14.88;91.10
53506;BME280;39388;50.936;6.848;2022-10-23T08:09:05;100549.97;;;14.95;90.47
53506;BME280;39388;50.936;6.848;2022-10-23T08:11:35;100547.28;;;14.98;90.27
53506;BME280;39388;50.936;6.848;2022-10-23T08:14:06;100538.69;;;14.95;90.58
53506;BME280;39388;50.936;6.848;2022-10-23T08:16:37;100557.63;;;15.00;90.42
53506;BME280;39388;50.936;6.848;2022-10-23T08:19:13;100557.50;;;15.05;90.31
53506;BME280;39388;50.936;6.848;2022-10-23T08:21:43;100553.06;;;15.08;90.10
53506;BME280;39388;50.936;6.848;2022-10-23T08:24:14;100561.53;;;15.17;89.72
53506;BME280;39388;50.936;6.848;2022-10-23T08:26:44;100563.91;;;15.24;89.53
53506;BME280;39388;50.936;6.848;2022-10-23T08:29:14;100565.53;;;15.28;89.15
53506;BME280;39388;50.936;6.848;2022-10-23T08:31:45;100555.94;;;15.30;89.05
53506;BME280;39388;50.936;6.848;2022-10-23T08:34:15;100550.59;;;15.37;88.96
53506;BME280;39388;50.936;6.848;2022-10-23T08:36:48;100559.06;;;15.43;88.87
53506;BME280;39388;50.936;6.848;2022-10-23T08:39:18;100542.59;;;15.44;88.95
53506;BME280;39388;50.936;6.848;2022-10-23T08:41:50;100550.13;;;15.54;88.42
53506;BME280;39388;50.936;6.848;2022-10-23T08:44:32;100549.81;;;15.65;88.19
53506;BME280;39388;50.936;6.848;2022-10-23T08:47:07;100543.53;;;15.72;87.97
53506;BME280;39388;50.936;6.848;2022-10-23T08:52:40;100538.03;;;15.83;87.39
53506;BME280;39388;50.936;6.848;2022-10-23T08:58:02;100522.94;;;15.94;86.75
53506;BME280;39388;50.936;6.848;2022-10-23T09:00:34;100527.09;;;16.00;86.77
53506;BME280;39388;50.936;6.848;2022-10-23T09:03:05;100517.44;;;16.05;86.55
53506;BME280;39388;50.936;6.848;2022-10-23T09:06:18;100504.38;;;16.08;86.08
53506;BME280;39388;50.936;6.848;2022-10-23T09:08:49;100510.97;;;16.18;86.08
53506;BME280;39388;50.936;6.848;2022-10-23T09:11:33;100508.19;;;16.25;86.00
53506;BME280;39388;50.936;6.848;2022-10-23T09:19:33;100503.03;;;16.50;85.15
53506;BME280;39388;50.936;6.848;2022-10-23T09:22:04;100489.00;;;16.54;84.87
53506;BME280;39388;50.936;6.848;2022-10-23T09:24:35;100482.91;;;16.55;84.65
53506;BME280;39388;50.936;6.848;2022-10-23T09:27:05;100487.78;;;16.64;84.52
53506;BME280;39388;50.936;6.848;2022-10-23T09:29:36;100481.59;;;16.68;84.39
53506;BME280;39388;50.936;6.848;2022-10-23T09:32:06;100470.22;;;16.71;84.21
53506;BME280;39388;50.936;6.848;2022-10-23T09:34:37;100475.97;;;16.81;84.01
53506;BME280;39388;50.936;6.848;2022-10-23T09:37:32;100464.38;;;16.90;83.73
53506;BME280;39388;50.936;6.848;2022-10-23T09:43:12;100469.94;;;17.04;83.44
53506;BME280;39388;50.936;6.848;2022-10-23T09:45:43;100468.03;;;17.09;83.51
53506;BME280;39388;50.936;6.848;2022-10-23T09:48:25;100462.72;;;17.12;82.90
53506;BME280;39388;50.936;6.848;2022-10-23T09:50:57;100471.03;;;17.22;83.05
53506;BME280;39388;50.936;6.848;2022-10-23T09:56:05;100464.63;;;17.33;82.53
53506;BME280;39388;50.936;6.848;2022-10-23T09:58:52;100460.03;;;17.39;82.74
53506;BME280;39388;50.936;6.848;2022-10-23T10:01:34;100458.06;;;17.44;82.61
53506;BME280;39388;50.936;6.848;2022-10-23T10:04:05;100457.88;;;17.51;82.49
53506;BME280;39388;50.936;6.848;2022-10-23T10:06:35;100451.63;;;17.55;82.27
53506;BME280;39388;50.936;6.848;2022-10-23T10:09:24;100438.41;;;17.59;81.83
53506;BME280;39388;50.936;6.848;2022-10-23T10:23:49;100418.66;;;17.76;81.75
53506;BME280;39388;50.936;6.848;2022-10-23T10:29:23;100407.13;;;17.82;81.40
53506;BME280;39388;50.936;6.848;2022-10-23T10:32:15;100413.00;;;17.87;81.49
53506;BME280;39388;50.936;6.848;2022-10-23T10:51:44;100384.44;;;17.84;79.78
53506;BME280;39388;50.936;6.848;2022-10-23T10:54:27;100380.97;;;17.83;79.77
53506;BME280;39388;50.936;6.848;2022-10-23T10:56:59;100364.50;;;17.83;79.71
53506;BME280;39388;50.936;6.848;2022-10-23T10:59:37;100367.16;;;17.81;79.13
53506;BME280;39388;50.936;6.848;2022-10-23T11:07:40;100384.84;;;17.95;78.47
53506;BME280;39388;50.936;6.848;2022-10-23T11:10:17;100377.88;;;17.96;78.19
53506;BME280;39388;50.936;6.848;2022-10-23T11:12:48;100378.94;;;17.92;77.89
53506;BME280;39388;50.936;6.848;2022-10-23T11:15:39;100381.88;;;17.82;77.63
53506;BME280;39388;50.936;6.848;2022-10-23T11:18:17;100348.09;;;17.79;77.88
53506;BME280;39388;50.936;6.848;2022-10-23T11:21:18;100372.56;;;17.77;77.72
53506;BME280;39388;50.936;6.848;2022-10-23T11:24:08;100359.63;;;17.73;78.19
53506;BME280;39388;50.936;6.848;2022-10-23T11:27:03;100330.50;;;17.64;78.57
53506;BME280;39388;50.936;6.848;2022-10-23T11:38:29;100326.72;;;17.71;78.53
53506;BME280;39388;50.936;6.848;2022-10-23T11:41:15;100314.28;;;17.78;78.55
53506;BME280;39388;50.936;6.848;2022-10-23T11:48:55;100315.84;;;18.23;78.08
53506;BME280;39388;50.936;6.848;2022-10-23T11:51:37;100318.78;;;18.36;77.73
53506;BME280;39388;50.936;6.848;2022-10-23T11:57:07;100303.25;;;18.54;76.41
53506;BME280;39388;50.936;6.848;2022-10-23T12:05:04;100298.31;;;18.67;75.74
53506;BME280;39388;50.936;6.848;2022-10-23T12:07:36;100254.63;;;18.51;75.64
53506;BME280;39388;50.936;6.848;2022-10-23T12:10:34;100283.44;;;18.69;75.37
53506;BME280;39388;50.936;6.848;2022-10-23T12:13:45;100287.81;;;18.68;75.05
53506;BME280;39388;50.936;6.848;2022-10-23T12:16:15;100270.38;;;18.69;74.85
53506;BME280;39388;50.936;6.848;2022-10-23T12:18:50;100272.00;;;18.71;75.15
53506;BME280;39388;50.936;6.848;2022-10-23T12:21:23;100263.16;;;18.74;74.96
53506;BME280;39388;50.936;6.848;2022-10-23T12:24:16;100259.78;;;18.72;74.88
53506;BME280;39388;50.936;6.848;2022-10-23T12:27:16;100270.78;;;18.78;74.59
53506;BME280;39388;50.936;6.848;2022-10-23T12:40:27;100258.31;;;18.85;74.61
53506;BME280;39388;50.936;6.848;2022-10-23T12:43:01;100245.31;;;18.84;74.90
53506;BME280;39388;50.936;6.848;2022-10-23T12:45:37;100243.75;;;18.79;74.24
53506;BME280;39388;50.936;6.848;2022-10-23T12:48:20;100246.31;;;18.81;74.49
53506;BME280;39388;50.936;6.848;2022-10-23T12:50:53;100242.81;;;18.80;74.86
53506;BME280;39388;50.936;6.848;2022-10-23T12:53:24;100235.91;;;18.79;74.63
53506;BME280;39388;50.936;6.848;2022-10-23T12:55:59;100224.53;;;18.80;74.61
53506;BME280;39388;50.936;6.848;2022-10-23T12:58:32;100211.56;;;18.79;74.81
53506;BME280;39388;50.936;6.848;2022-10-23T13:01:03;100197.66;;;18.78;75.15
53506;BME280;39388;50.936;6.848;2022-10-23T13:03:34;100196.19;;;18.73;75.16
53506;BME280;39388;50.936;6.848;2022-10-23T13:06:09;100207.25;;;18.78;75.26
53506;BME280;39388;50.936;6.848;2022-10-23T13:08:43;100213.25;;;18.80;75.37
53506;BME280;39388;50.936;6.848;2022-10-23T13:11:16;100207.34;;;18.76;75.20
53506;BME280;39388;50.936;6.848;2022-10-23T13:13:48;100200.34;;;18.77;75.07
53506;BME280;39388;50.936;6.848;2022-10-23T13:16:21;100174.81;;;18.64;74.96
53506;BME280;39388;50.936;6.848;2022-10-23T13:18:52;100189.06;;;18.76;74.97
53506;BME280;39388;50.936;6.848;2022-10-23T13:21:25;100190.81;;;18.76;75.05
53506;BME280;39388;50.936;6.848;2022-10-23T13:23:57;100172.47;;;18.77;75.22
53506;BME280;39388;50.936;6.848;2022-10-23T13:26:37;100173.22;;;18.79;75.25
53506;BME280;39388;50.936;6.848;2022-10-23T13:29:30;100165.38;;;18.79;75.16
53506;BME280;39388;50.936;6.848;2022-10-23T13:32:21;100172.13;;;18.85;74.97
53506;BME280;39388;50.936;6.848;2022-10-23T13:34:53;100162.41;;;18.87;75.20
53506;BME280;39388;50.936;6.848;2022-10-23T13:37:30;100150.34;;;18.85;75.28
53506;BME280;39388;50.936;6.848;2022-10-23T13:40:04;100158.97;;;18.87;75.23
53506;BME280;39388;50.936;6.848;2022-10-23T13:42:36;100157.00;;;18.92;75.43
53506;BME280;39388;50.936;6.848;2022-10-23T13:45:15;100149.16;;;18.92;75.24
53506;BME280;39388;50.936;6.848;2022-10-23T13:47:47;100146.38;;;18.95;75.19
53506;BME280;39388;50.936;6.848;2022-10-23T13:50:18;100146.38;;;18.95;75.39
53506;BME280;39388;50.936;6.848;2022-10-23T13:52:49;100144.75;;;18.92;75.34
53506;BME280;39388;50.936;6.848;2022-10-23T13:55:22;100148.19;;;18.93;75.49
53506;BME280;39388;50.936;6.848;2022-10-23T13:57:53;100143.06;;;18.91;75.38
53506;BME280;39388;50.936;6.848;2022-10-23T14:00:24;100135.22;;;18.91;75.60
53506;BME280;39388;50.936;6.848;2022-10-23T14:02:54;100136.16;;;18.90;75.55
53506;BME280;39388;50.936;6.848;2022-10-23T14:05:25;100132.63;;;18.91;75.71
53506;BME280;39388;50.936;6.848;2022-10-23T14:07:55;100122.31;;;18.88;75.87
53506;BME280;39388;50.936;6.848;2022-10-23T14:10:25;100133.38;;;18.93;76.05
53506;BME280;39388;50.936;6.848;2022-10-23T14:12:56;100120.47;;;18.90;75.96
53506;BME280;39388;50.936;6.848;2022-10-23T14:15:26;100122.94;;;18.93;76.07
53506;BME280;39388;50.936;6.848;2022-10-23T14:17:57;100117.72;;;18.93;76.02
53506;BME280;39388;50.936;6.848;2022-10-23T14:20:27;100104.88;;;18.89;75.97
53506;BME280;39388;50.936;6.848;2022-10-23T14:22:58;100110.78;;;18.92;75.91
53506;BME280;39388;50.936;6.848;2022-10-23T14:25:29;100076.00;;;18.74;75.78
53506;BME280;39388;50.936;6.848;2022-10-23T14:27:59;100102.97;;;18.92;75.70
53506;BME280;39388;50.936;6.848;2022-10-23T14:30:30;100102.72;;;18.97;76.14
53506;BME280;39388;50.936;6.848;2022-10-23T14:33:01;100103.66;;;18.96;76.08
53506;BME280;39388;50.936;6.848;2022-10-23T14:35:31;100102.81;;;18.95;76.55
53506;BME280;39388;50.936;6.848;2022-10-23T14:38:02;100080.91;;;18.80;76.50
53506;BME280;39388;50.936;6.848;2022-10-23T14:40:36;100097.88;;;18.89;76.57
53506;BME280;39388;50.936;6.848;2022-10-23T14:43:06;100106.72;;;18.87;76.81
53506;BME280;39388;50.936;6.848;2022-10-23T14:45:37;100111.09;;;18.86;76.94
53506;BME280;39388;50.936;6.848;2022-10-23T14:48:07;100090.41;;;18.81;77.00
53506;BME280;39388;50.936;6.848;2022-10-23T14:50:44;100105.13;;;18.84;76.92
53506;BME280;39388;50.936;6.848;2022-10-23T14:53:15;100082.91;;;18.75;76.80
53506;BME280;39388;50.936;6.848;2022-10-23T14:55:45;100086.13;;;18.80;76.88
53506;BME280;39388;50.936;6.848;2022-10-23T14:58:15;100087.81;;;18.81;76.88
53506;BME280;39388;50.936;6.848;2022-10-23T15:00:56;100081.75;;;18.81;76.74
53506;BME280;39388;50.936;6.848;2022-10-23T15:03:27;100068.84;;;18.78;76.73
53506;BME280;39388;50.936;6.848;2022-10-23T15:05:58;100068.00;;;18.77;76.84